»·PEaware :: DAL2997 KPHX-KSLC

DAL2997 :: KPHX-KSLC

FLIGHT INFORMATION

Flight Status: Arrived
Operator:
Delta Air Lines
More flights by this operator :: More flights under this callsign
Pilot: Patricio R. (14780)
Aircraft: BOEING 737-800
(B738)
More flights by this aircraft type
Origin: KPHX Phoenix Sky Harbor Intl
United States
Destination: KSLC Salt Lake City Intl
United States
More flights between these airports :: More routes between these airports
Route: +ZIDOG1 ZIDOG QUAKY SNOBL CARTL LOFTS GCN BCE QWENN5
File this flight plan on PilotEdge
Remarks: PBN / A1B1C1D1S1S2 DOF / 180504 REG / N806SB EET / KZLA0022 KZLC0042 OPR / DAL PER / C RMK / TCAS SIMBRIEF
Altitude:
(Current/Filed)
34,000ft
Speed:
(Current/Filed)
436kts
Departed: 03-May-18 05:39 PM
Arrived: 03-May-18 06:57 PM
Distance/Time
Traveled:
441nm/1:18
Distance/Time
To Go:
Arrived

Flight Plot

Page will automatically refresh every two minutes.

Flight plan parsing failed; only flown route is shown


Map Options




Map Legend


Flown Route
Filed Route
Departure Airport
Arrival Airport
Navaid (VOR, NDB)
Fix

Horizontal Profiles

Position Reports

Time Latitude Longitude Heading Altitude Ground
Speed
03-May-18 17:12 33.436376 -112.009432 90 1117ft 0kts
03-May-18 17:13 33.436376 -112.009432 90 1117ft 0kts
03-May-18 17:14 33.436376 -112.009432 90 1117ft 0kts
03-May-18 17:15 33.436376 -112.009432 90 1117ft 0kts
03-May-18 17:16 33.436376 -112.009432 90 1117ft 0kts
03-May-18 17:17 33.436376 -112.009432 90 1117ft 0kts
03-May-18 17:18 33.436376 -112.009432 90 1117ft 0kts
03-May-18 17:19 33.436376 -112.009432 90 1117ft 0kts
03-May-18 17:20 33.436376 -112.009432 90 1117ft 0kts
03-May-18 17:21 33.436376 -112.009432 90 1117ft 0kts
03-May-18 17:22 33.436376 -112.009432 90 1117ft 0kts
03-May-18 17:23 33.436376 -112.009432 90 1117ft 0kts
03-May-18 17:24 33.436377 -112.009518 94 1117ft 2kts
03-May-18 17:25 33.436684 -112.010099 149 1117ft 2kts
03-May-18 17:26 33.437256 -112.010211 179 1117ft 2kts
03-May-18 17:27 33.437854 -112.010212 179 1117ft 2kts
03-May-18 17:28 33.438447 -112.010212 179 1117ft 2kts
03-May-18 17:29 33.438961 -112.009957 240 1117ft 2kts
03-May-18 17:30 33.439023 -112.009644 274 1116ft 0kts
03-May-18 17:31 33.439023 -112.009644 274 1116ft 0kts
03-May-18 17:32 33.439023 -112.009644 274 1116ft 0kts
03-May-18 17:33 33.439029 -112.010018 271 1116ft 5kts
03-May-18 17:34 33.439024 -112.007806 78 1117ft 12kts
03-May-18 17:35 33.439737 -112.004185 89 1117ft 21kts
03-May-18 17:36 33.439727 -111.995564 90 1117ft 27kts
03-May-18 17:37 33.440426 -111.991092 340 1117ft 9kts
03-May-18 17:38 33.440863 -112.019358 268 1435ft 167kts
03-May-18 17:39 33.441778 -112.075996 275 3518ft 195kts
03-May-18 17:40 33.444146 -112.150538 275 6475ft 243kts
03-May-18 17:41 33.489434 -112.193931 359 9861ft 245kts
03-May-18 17:42 33.560629 -112.195092 358 12549ft 286kts
03-May-18 17:43 33.647048 -112.199011 358 15429ft 324kts
03-May-18 17:44 33.737224 -112.181758 13 18597ft 341kts
03-May-18 17:45 33.829771 -112.154133 13 21070ft 358kts
03-May-18 17:46 33.924328 -112.125829 13 21883ft 352kts
03-May-18 17:47 34.019632 -112.097216 13 24537ft 359kts
03-May-18 17:48 34.116522 -112.068067 12 26826ft 366kts
03-May-18 17:49 34.215513 -112.038225 12 28862ft 374kts
03-May-18 17:50 34.314858 -112.008187 12 31177ft 367kts
03-May-18 17:51 34.414093 -111.978161 11 32918ft 370kts
03-May-18 17:52 34.515494 -111.980521 353 34233ft 372kts
03-May-18 17:53 34.622738 -111.992999 353 34255ft 404kts
03-May-18 17:54 34.735973 -112.005853 353 34244ft 410kts
03-May-18 17:55 34.848892 -112.018691 354 34243ft 408kts
03-May-18 17:56 34.961311 -112.031494 354 34241ft 408kts
03-May-18 17:57 35.074033 -112.044320 354 34258ft 407kts
03-May-18 17:58 35.184304 -112.056863 354 34305ft 408kts
03-May-18 17:59 35.296871 -112.069674 354 34303ft 407kts
03-May-18 18:00 35.409105 -112.082449 354 34303ft 407kts
03-May-18 18:01 35.521634 -112.095293 354 34301ft 407kts
03-May-18 18:02 35.633989 -112.108136 354 34300ft 407kts
03-May-18 18:03 35.746451 -112.121005 354 34326ft 407kts
03-May-18 18:04 35.858693 -112.133873 354 34325ft 406kts
03-May-18 18:05 35.957018 -112.145140 354 34323ft 406kts
03-May-18 18:06 36.069394 -112.155534 355 34322ft 406kts
03-May-18 18:07 36.178181 -112.165296 355 34333ft 406kts
03-May-18 18:08 36.290450 -112.175429 356 34330ft 404kts
03-May-18 18:09 36.402321 -112.185559 356 34330ft 404kts
03-May-18 18:10 36.514347 -112.195736 356 34329ft 404kts
03-May-18 18:11 36.625830 -112.205890 356 34327ft 404kts
03-May-18 18:12 36.737642 -112.216095 356 34219ft 404kts
03-May-18 18:14 36.849581 -112.226329 356 34215ft 404kts
03-May-18 18:15 36.961120 -112.236528 356 34213ft 404kts
03-May-18 18:16 37.072623 -112.246730 356 34227ft 403kts
03-May-18 18:17 37.179702 -112.256403 356 34250ft 402kts
03-May-18 18:18 37.291423 -112.266676 356 34285ft 403kts
03-May-18 18:19 37.402881 -112.276912 356 34284ft 403kts
03-May-18 18:20 37.514036 -112.287114 356 34283ft 403kts
03-May-18 18:21 37.625378 -112.297331 356 34281ft 403kts
03-May-18 18:22 37.736871 -112.298068 5 34279ft 403kts
03-May-18 18:23 37.848251 -112.282723 5 34278ft 404kts
03-May-18 18:24 37.959649 -112.267310 5 34277ft 404kts
03-May-18 18:25 38.071044 -112.251871 5 34276ft 404kts
03-May-18 18:26 38.173945 -112.237591 5 34287ft 402kts
03-May-18 18:27 38.284674 -112.222176 5 34286ft 403kts
03-May-18 18:28 38.395673 -112.206698 5 34211ft 403kts
03-May-18 18:29 38.506927 -112.191133 5 34200ft 403kts
03-May-18 18:30 38.617970 -112.175554 5 34199ft 403kts
03-May-18 18:31 38.729428 -112.159875 5 34198ft 403kts
03-May-18 18:32 38.840889 -112.144357 5 34196ft 405kts
03-May-18 18:33 38.952214 -112.128927 5 34195ft 404kts
03-May-18 18:34 39.061963 -112.113668 5 33308ft 402kts
03-May-18 18:35 39.143489 -112.102313 6 31487ft 397kts
03-May-18 18:36 39.249196 -112.087549 6 29032ft 377kts
03-May-18 18:37 39.350045 -112.073324 6 26897ft 360kts
03-May-18 18:38 39.448437 -112.059384 6 24898ft 352kts
03-May-18 18:39 39.535714 -112.046987 6 23080ft 346kts
03-May-18 18:40 39.629943 -112.033547 6 21079ft 340kts
03-May-18 18:41 39.723000 -112.020238 6 19067ft 335kts
03-May-18 18:42 39.814384 -112.007141 6 17128ft 327kts
03-May-18 18:43 39.902445 -111.994482 5 15504ft 311kts
03-May-18 18:44 39.984842 -111.982806 5 14270ft 293kts
03-May-18 18:45 40.065200 -111.971721 5 13226ft 289kts
03-May-18 18:46 40.140041 -111.961372 5 12283ft 287kts
03-May-18 18:47 40.218861 -111.950448 4 11288ft 284kts
03-May-18 18:48 40.296376 -111.938142 3 11022ft 282kts
03-May-18 18:49 40.374929 -111.929520 3 11037ft 283kts
03-May-18 18:50 40.451618 -111.935190 353 10668ft 271kts
03-May-18 18:51 40.526182 -111.944374 353 9234ft 269kts
03-May-18 18:52 40.598484 -111.952762 354 7747ft 246kts
03-May-18 18:53 40.661768 -111.960068 354 6480ft 211kts
03-May-18 18:54 40.713914 -111.966091 354 5494ft 163kts
03-May-18 18:55 40.753903 -111.970652 355 4666ft 138kts
03-May-18 18:56 40.788514 -111.974733 354 4235ft 44kts
03-May-18 18:57 40.792109 -111.977100 256 4235ft 8kts
03-May-18 18:58 40.790268 -111.977840 266 4235ft 7kts
03-May-18 18:59 40.789833 -111.982769 260 4235ft 13kts
03-May-18 19:00 40.788910 -111.986573 173 4235ft 11kts
03-May-18 19:01 40.788001 -111.985346 71 4235ft 1kts
03-May-18 19:02 40.788022 -111.985262 71 4235ft 0kts

Navigation Log

Ident Type
Flight plan parsing failed, navigation log unavailable